Time;durP1;ratioP1;P1;durP2;ratioP2;P2;SDS_P1;SDS_P2;PMS_P1;PMS_P2;Temp;Humidity;BMP_temperature;BMP_pressure;BME280_temperature;BME280_humidity;BME280_pressure;Samples;Min_cycle;Max_cycle;Signal;HPM_P1;HPM_P2
2023/07/22 00:01:09;;;;;;;1.00;1.00;;;21.70;55.90;20.90;96464.00;;;;5071941;28;20847;-85
2023/07/22 00:03:36;;;;;;;2.90;1.10;;;21.70;56.00;20.90;96461.00;;;;5070452;28;20206;-85
2023/07/22 00:06:05;;;;;;;0.97;0.97;;;21.60;56.10;20.80;96468.00;;;;5075668;28;20265;-85
2023/07/22 00:08:33;;;;;;;1.70;1.10;;;21.50;56.20;20.80;96459.00;;;;5070354;28;20296;-84
2023/07/22 00:11:02;;;;;;;1.43;1.30;;;21.50;56.30;20.70;96461.00;;;;5070268;28;20245;-85
2023/07/22 00:13:29;;;;;;;1.13;1.00;;;21.40;56.40;20.60;96461.00;;;;5053933;28;20621;-84
2023/07/22 00:15:59;;;;;;;1.37;1.10;;;21.40;56.40;20.60;96452.00;;;;5070865;28;20212;-84
2023/07/22 00:18:27;;;;;;;1.23;1.17;;;21.30;56.50;20.50;96459.00;;;;5072148;28;22285;-85
2023/07/22 00:20:55;;;;;;;2.73;1.10;;;21.30;56.60;20.50;96454.00;;;;5078337;28;20192;-85
2023/07/22 00:23:23;;;;;;;1.30;1.10;;;21.20;56.60;20.40;96462.00;;;;5080499;28;20665;-85
2023/07/22 00:25:50;;;;;;;1.30;1.20;;;21.20;56.80;20.30;96458.00;;;;5071733;28;20244;-85
2023/07/22 00:28:19;;;;;;;1.50;0.93;;;21.10;56.80;20.20;96454.00;;;;5078678;28;20213;-86
2023/07/22 00:30:46;;;;;;;1.00;1.00;;;21.00;57.00;20.20;96456.00;;;;5082668;28;20193;-85
2023/07/22 00:33:13;;;;;;;0.80;0.80;;;21.00;57.00;20.10;96452.00;;;;5075443;28;20192;-84
2023/07/22 00:35:40;;;;;;;1.40;1.07;;;20.90;57.10;20.10;96450.00;;;;5083695;28;20218;-85
2023/07/22 00:38:09;;;;;;;1.00;0.90;;;20.80;57.30;20.10;96448.00;;;;5082808;28;20215;-84
2023/07/22 00:40:37;;;;;;;1.20;1.10;;;20.80;57.40;20.00;96450.00;;;;5092656;28;20248;-85
2023/07/22 00:43:07;;;;;;;0.80;0.80;;;20.70;57.40;19.90;96444.00;;;;5095673;28;20187;-85
2023/07/22 00:45:35;;;;;;;1.43;1.17;;;20.70;57.50;19.90;96446.00;;;;5075223;28;20192;-84
2023/07/22 00:48:05;;;;;;;1.00;0.90;;;20.70;57.60;19.80;96447.00;;;;5072689;28;20238;-85
2023/07/22 00:50:34;;;;;;;1.10;1.00;;;20.60;57.60;19.80;96439.00;;;;5089991;28;20210;-84
2023/07/22 00:53:01;;;;;;;1.10;1.00;;;20.50;57.60;19.70;96444.00;;;;5078480;28;20819;-85
2023/07/22 00:55:29;;;;;;;1.00;0.90;;;20.50;57.70;19.60;96447.00;;;;5073367;28;20692;-84
2023/07/22 00:57:56;;;;;;;1.03;1.00;;;20.40;57.80;19.60;96435.00;;;;5078327;28;20199;-85
2023/07/22 01:00:24;;;;;;;1.10;1.00;;;20.40;57.90;19.50;96441.00;;;;5071720;28;20207;-85
2023/07/22 01:02:54;;;;;;;1.23;1.13;;;20.30;57.90;19.50;96443.00;;;;5067235;28;20370;-84
2023/07/22 01:05:22;;;;;;;0.97;0.97;;;20.30;58.20;19.40;96447.00;;;;5071695;28;20729;-83
2023/07/22 01:07:49;;;;;;;1.20;1.10;;;20.20;58.20;19.30;96443.00;;;;5071857;28;20281;-84
2023/07/22 01:10:16;;;;;;;1.00;1.00;;;20.10;58.30;19.30;96440.00;;;;5072155;28;20197;-85
2023/07/22 01:12:46;;;;;;;1.10;1.00;;;20.10;58.40;19.20;96428.00;;;;5071711;28;20208;-84
2023/07/22 01:15:13;;;;;;;1.27;1.10;;;20.00;58.60;19.20;96430.00;;;;5075956;28;20224;-85
2023/07/22 01:17:41;;;;;;;1.23;1.13;;;20.00;58.60;19.10;96430.00;;;;5064472;28;20210;-84
2023/07/22 01:20:12;;;;;;;0.90;0.90;;;19.90;58.80;19.10;96431.00;;;;5076097;28;20196;-84
2023/07/22 01:22:41;;;;;;;1.23;0.90;;;19.90;58.90;19.10;96426.00;;;;5076398;28;20199;-85
2023/07/22 01:25:11;;;;;;;0.97;0.97;;;19.90;58.90;19.00;96423.00;;;;5080612;28;20225;-85
2023/07/22 01:27:38;;;;;;;1.20;1.10;;;19.90;59.10;19.00;96414.00;;;;5070919;28;20212;-85
2023/07/22 01:30:09;;;;;;;1.57;1.00;;;19.80;59.00;19.00;96418.00;;;;5074708;28;20188;-84
2023/07/22 01:32:36;;;;;;;1.00;1.00;;;19.80;59.10;19.00;96416.00;;;;5079839;28;20209;-82
2023/07/22 01:35:06;;;;;;;1.30;1.20;;;19.70;59.10;18.90;96415.00;;;;5080230;28;20713;-84
2023/07/22 01:37:33;;;;;;;1.23;1.17;;;19.70;59.10;18.90;96413.00;;;;5074251;28;20720;-85
2023/07/22 01:40:00;;;;;;;1.47;0.90;;;19.70;59.10;18.80;96415.00;;;;5086380;28;20199;-84
2023/07/22 01:42:29;;;;;;;1.00;1.00;;;19.60;59.20;18.80;96416.00;;;;5071571;28;20195;-85
2023/07/22 01:44:56;;;;;;;1.10;1.00;;;19.60;59.90;18.80;96419.00;;;;5073156;28;20207;-85
2023/07/22 01:47:23;;;;;;;1.17;1.10;;;19.60;59.40;18.70;96418.00;;;;5073078;28;20672;-85
2023/07/22 01:49:54;;;;;;;0.97;0.87;;;19.60;59.40;18.70;96415.00;;;;5079093;28;20583;-85
2023/07/22 01:52:21;;;;;;;1.00;1.00;;;19.50;59.50;18.70;96425.00;;;;5073067;28;20200;-85
2023/07/22 01:54:48;;;;;;;1.00;1.00;;;19.50;59.50;18.60;96420.00;;;;5074944;28;20216;-85
2023/07/22 01:57:16;;;;;;;1.67;1.10;;;19.50;59.50;18.60;96417.00;;;;5093514;28;20231;-86
2023/07/22 01:59:45;;;;;;;1.40;0.90;;;19.40;59.50;18.60;96422.00;;;;5087242;28;20199;-84
2023/07/22 02:02:12;;;;;;;1.10;1.00;;;19.40;59.50;18.50;96424.00;;;;5071249;28;20200;-85
2023/07/22 02:04:40;;;;;;;1.10;1.00;;;19.40;59.50;18.50;96421.00;;;;5059093;28;20253;-85
2023/07/22 02:07:07;;;;;;;1.20;1.10;;;19.40;59.50;18.50;96418.00;;;;5070407;28;20218;-84
2023/07/22 02:09:34;;;;;;;0.83;0.83;;;19.30;59.50;18.40;96422.00;;;;5074063;28;20202;-85
2023/07/22 02:12:02;;;;;;;0.97;0.97;;;19.30;59.50;18.40;96425.00;;;;5077227;28;20253;-84
2023/07/22 02:14:29;;;;;;;1.00;1.00;;;19.30;59.60;18.30;96424.00;;;;5062808;28;20224;-84
2023/07/22 02:16:58;;;;;;;1.00;1.00;;;19.20;59.60;18.30;96425.00;;;;5076004;28;20218;-84
2023/07/22 02:19:26;;;;;;;1.53;1.00;;;19.10;59.60;18.20;96427.00;;;;5065335;28;20299;-85
2023/07/22 02:21:54;;;;;;;1.40;1.23;;;19.10;59.70;18.20;96424.00;;;;5080387;28;20192;-84
2023/07/22 02:24:22;;;;;;;1.60;1.10;;;19.00;59.80;18.10;96432.00;;;;5072353;28;20284;-85
2023/07/22 02:26:49;;;;;;;1.33;1.23;;;19.00;60.00;18.10;96432.00;;;;5081033;28;20273;-84
2023/07/22 02:29:17;;;;;;;1.27;1.17;;;19.00;60.10;18.00;96438.00;;;;5065189;28;20287;-85
2023/07/22 02:31:46;;;;;;;1.93;1.17;;;18.90;60.20;18.00;96444.00;;;;5065416;28;20710;-84
2023/07/22 02:34:14;;;;;;;1.40;1.20;;;18.90;60.30;18.00;96440.00;;;;5072103;28;20507;-85
2023/07/22 02:36:41;;;;;;;1.37;1.27;;;18.80;60.50;17.90;96430.00;;;;5073036;28;20219;-84
2023/07/22 02:39:09;;;;;;;2.17;1.10;;;18.80;60.70;17.90;96439.00;;;;5076706;28;20661;-85
2023/07/22 02:41:37;;;;;;;1.30;1.07;;;18.70;60.80;17.90;96432.00;;;;5067006;28;20196;-85
2023/07/22 02:44:05;;;;;;;1.30;1.20;;;18.70;61.00;17.80;96426.00;;;;5065715;28;20204;-85
2023/07/22 02:46:32;;;;;;;1.50;1.30;;;18.70;61.00;17.80;96435.00;;;;5069281;28;20662;-85
2023/07/22 02:49:01;;;;;;;1.20;1.10;;;18.70;61.10;17.80;96439.00;;;;5072005;28;20200;-85
2023/07/22 02:51:30;;;;;;;1.00;1.00;;;18.70;61.40;17.80;96432.00;;;;5072666;28;20201;-84
2023/07/22 02:53:58;;;;;;;1.27;1.17;;;18.60;61.40;17.70;96433.00;;;;5064621;28;20212;-85
2023/07/22 02:56:26;;;;;;;1.10;1.00;;;18.60;62.10;17.70;96443.00;;;;5058238;28;20212;-85
2023/07/22 02:58:53;;;;;;;1.20;1.10;;;18.60;61.40;17.70;96445.00;;;;5070949;28;20195;-85
2023/07/22 03:01:20;;;;;;;1.17;1.07;;;18.60;61.40;17.70;96448.00;;;;5071181;28;20207;-85
2023/07/22 03:03:47;;;;;;;1.30;1.20;;;18.50;61.40;17.70;96450.00;;;;5066513;28;20206;-85
2023/07/22 03:06:15;;;;;;;1.40;1.30;;;18.50;61.60;17.60;96450.00;;;;5064166;28;20717;-85
2023/07/22 03:08:44;;;;;;;1.63;1.50;;;18.50;61.70;17.60;96459.00;;;;5063815;28;20274;-84
2023/07/22 03:11:24;;;;;;;1.40;1.30;;;18.50;61.90;17.60;96442.00;;;;5068856;28;20192;-85
2023/07/22 03:13:52;;;;;;;1.47;1.37;;;18.40;62.00;17.60;96446.00;;;;5064975;28;20229;-85
2023/07/22 03:16:19;;;;;;;2.03;1.77;;;18.40;62.10;17.50;96451.00;;;;5071264;28;20220;-85
2023/07/22 03:18:47;;;;;;;1.33;1.23;;;18.40;62.30;17.50;96449.00;;;;5067289;28;20199;-85
2023/07/22 03:21:14;;;;;;;1.93;1.73;;;18.30;62.30;17.50;96451.00;;;;5079818;28;20196;-84
2023/07/22 03:23:42;;;;;;;1.33;1.27;;;18.30;62.40;17.40;96454.00;;;;5072133;28;20283;-85
2023/07/22 03:26:10;;;;;;;1.70;1.60;;;18.30;62.40;17.40;96462.00;;;;5071454;28;20715;-85
2023/07/22 03:28:37;;;;;;;1.50;1.40;;;18.20;62.50;17.40;96457.00;;;;5065258;28;20675;-85
2023/07/22 03:31:04;;;;;;;1.97;1.43;;;18.20;62.70;17.30;96454.00;;;;5072271;28;20196;-84
2023/07/22 03:33:31;;;;;;;1.73;1.63;;;18.20;62.70;17.30;96456.00;;;;5087478;28;20259;-85
2023/07/22 03:35:58;;;;;;;1.60;1.50;;;18.20;62.80;17.30;96462.00;;;;5103410;28;20212;-84
2023/07/22 03:38:26;;;;;;;1.70;1.20;;;18.20;62.90;17.30;96462.00;;;;5068351;28;20188;-84
2023/07/22 03:40:54;;;;;;;1.10;1.10;;;18.10;63.00;17.20;96457.00;;;;5072048;28;20199;-85
2023/07/22 03:43:22;;;;;;;1.80;1.67;;;18.10;63.10;17.20;96454.00;;;;5071416;28;20574;-85
2023/07/22 03:45:49;;;;;;;1.30;1.20;;;18.10;63.20;17.30;96449.00;;;;5071216;28;20227;-84
2023/07/22 03:48:16;;;;;;;1.30;1.20;;;18.10;63.30;17.30;96445.00;;;;5073900;28;20235;-84
2023/07/22 03:50:44;;;;;;;1.30;1.20;;;18.10;63.40;17.30;96444.00;;;;5072136;28;20198;-84
2023/07/22 03:53:11;;;;;;;1.27;1.13;;;18.10;63.50;17.30;96456.00;;;;5074173;28;20208;-85
2023/07/22 03:55:38;;;;;;;1.40;1.30;;;18.10;63.40;17.30;96458.00;;;;5053042;28;20220;-84
2023/07/22 03:58:06;;;;;;;1.50;1.40;;;18.20;63.30;17.30;96464.00;;;;5074362;28;20200;-85
2023/07/22 04:00:34;;;;;;;1.27;1.17;;;18.20;63.20;17.30;96468.00;;;;5069760;28;20207;-85
2023/07/22 04:03:01;;;;;;;2.90;1.37;;;18.20;63.10;17.30;96462.00;;;;5069678;28;20196;-84
2023/07/22 04:05:28;;;;;;;2.17;1.40;;;18.20;63.20;17.30;96464.00;;;;5072309;28;20227;-85
2023/07/22 04:07:56;;;;;;;1.57;1.40;;;18.10;63.20;17.30;96463.00;;;;5073362;28;20200;-85
2023/07/22 04:10:24;;;;;;;1.43;1.33;;;18.10;63.30;17.30;96458.00;;;;5073081;28;20191;-85
2023/07/22 04:12:52;;;;;;;1.63;1.53;;;18.10;63.40;17.20;96472.00;;;;5075736;28;20194;-84
2023/07/22 04:15:21;;;;;;;2.13;1.43;;;18.10;63.50;17.20;96465.00;;;;5070290;28;20819;-84
2023/07/22 04:17:48;;;;;;;1.70;1.60;;;18.10;63.80;17.20;96464.00;;;;5074868;28;20565;-84
2023/07/22 04:20:15;;;;;;;1.30;1.20;;;18.00;63.80;17.20;96467.00;;;;5074913;28;20203;-85
2023/07/22 04:22:43;;;;;;;1.53;1.27;;;18.00;64.00;17.20;96471.00;;;;5084662;28;20188;-84
2023/07/22 04:25:11;;;;;;;3.77;1.60;;;18.00;64.10;17.20;96484.00;;;;5076011;28;20269;-84
2023/07/22 04:27:38;;;;;;;1.60;1.50;;;18.00;64.20;17.20;96492.00;;;;5075151;28;20597;-85
2023/07/22 04:30:07;;;;;;;2.83;2.10;;;18.00;65.10;17.20;96488.00;;;;5073719;28;20200;-84
2023/07/22 04:32:35;;;;;;;2.97;2.40;;;18.00;64.50;17.20;96490.00;;;;5075531;28;20199;-84
2023/07/22 04:35:04;;;;;;;3.03;2.50;;;18.00;64.60;17.20;96492.00;;;;5061603;28;20719;-84
2023/07/22 04:37:32;;;;;;;2.63;2.43;;;18.00;64.60;17.20;96492.00;;;;5079827;28;20660;-84
2023/07/22 04:39:59;;;;;;;2.23;1.80;;;18.00;64.70;17.20;96493.00;;;;5074347;28;20675;-84
2023/07/22 04:42:27;;;;;;;3.10;1.90;;;18.00;64.90;17.20;96492.00;;;;5084543;28;20191;-84
2023/07/22 04:44:55;;;;;;;1.97;1.87;;;18.00;65.10;17.30;96490.00;;;;5073587;28;20196;-84
2023/07/22 04:47:22;;;;;;;1.80;1.70;;;18.00;65.20;17.30;96485.00;;;;5081020;28;20216;-84
2023/07/22 04:49:50;;;;;;;2.10;1.90;;;18.00;65.30;17.30;96486.00;;;;5075629;28;20278;-84
2023/07/22 04:52:18;;;;;;;2.53;1.57;;;18.10;65.60;17.30;96486.00;;;;5080154;28;20571;-84
2023/07/22 04:54:47;;;;;;;1.87;1.70;;;18.10;65.70;17.30;96480.00;;;;5075142;28;20191;-84
2023/07/22 04:57:16;;;;;;;2.00;1.80;;;18.10;65.90;17.40;96478.00;;;;5073909;28;20298;-84
2023/07/22 04:59:44;;;;;;;2.30;2.10;;;18.20;66.10;17.40;96484.00;;;;5061271;28;20192;-84
2023/07/22 05:02:13;;;;;;;3.80;2.00;;;18.20;66.30;17.50;96479.00;;;;5076653;28;20231;-84
2023/07/22 05:04:41;;;;;;;1.97;1.77;;;18.30;66.60;17.50;96470.00;;;;5079589;28;20270;-84
2023/07/22 05:07:09;;;;;;;2.27;1.90;;;18.30;66.80;17.60;96471.00;;;;5075169;28;20849;-85
2023/07/22 05:09:40;;;;;;;2.57;2.10;;;18.30;67.30;17.60;96470.00;;;;5074918;28;20727;-84
2023/07/22 05:12:08;;;;;;;2.60;1.97;;;18.30;67.50;17.70;96471.00;;;;5074455;28;20699;-84
2023/07/22 05:14:35;;;;;;;2.87;2.57;;;18.40;67.50;17.80;96475.00;;;;5075719;28;20581;-85
2023/07/22 05:17:02;;;;;;;3.43;1.90;;;18.50;67.80;17.80;96486.00;;;;5079330;28;20228;-84
2023/07/22 05:19:30;;;;;;;3.17;2.40;;;18.50;68.00;17.90;96484.00;;;;5067595;28;20200;-84
2023/07/22 05:21:57;;;;;;;2.97;2.23;;;18.60;68.90;18.00;96491.00;;;;5081070;28;20198;-84
2023/07/22 05:24:26;;;;;;;2.30;2.10;;;18.60;68.30;18.00;96492.00;;;;5073052;28;20195;-85
2023/07/22 05:26:53;;;;;;;2.40;2.20;;;18.70;68.50;18.10;96492.00;;;;5071912;28;20223;-84
2023/07/22 05:29:21;;;;;;;2.83;2.63;;;18.80;68.50;18.20;96497.00;;;;5071554;28;20196;-85
2023/07/22 05:31:48;;;;;;;2.13;2.03;;;18.80;68.60;18.30;96498.00;;;;5073145;28;20283;-84
2023/07/22 05:34:15;;;;;;;2.53;2.03;;;18.90;68.80;18.40;96494.00;;;;5079268;28;20200;-85
2023/07/22 05:36:43;;;;;;;2.20;2.00;;;19.00;68.90;18.40;96495.00;;;;5043936;28;20223;-84
2023/07/22 05:39:11;;;;;;;3.70;2.43;;;19.10;69.10;18.50;96491.00;;;;5069674;28;20189;-84
2023/07/22 05:41:40;;;;;;;2.57;2.37;;;19.10;69.00;18.60;96490.00;;;;5082997;28;20220;-84
2023/07/22 05:44:07;;;;;;;2.23;2.07;;;19.20;69.00;18.70;96501.00;;;;5074841;28;20827;-83
2023/07/22 05:46:34;;;;;;;2.33;2.20;;;19.30;69.80;18.70;96498.00;;;;5070886;28;20715;-83
2023/07/22 05:49:01;;;;;;;3.27;2.23;;;19.40;69.10;18.80;96509.00;;;;5071896;28;20188;-84
2023/07/22 05:51:28;;;;;;;2.50;2.30;;;19.40;69.10;18.90;96508.00;;;;5072556;28;20206;-84
2023/07/22 05:53:57;;;;;;;2.33;2.13;;;19.50;69.20;18.90;96505.00;;;;5070848;28;20215;-85
2023/07/22 05:56:24;;;;;;;2.20;2.07;;;19.50;69.20;19.00;96506.00;;;;5071628;28;20223;-84
2023/07/22 05:58:53;;;;;;;2.50;2.07;;;19.60;69.20;19.10;96508.00;;;;5073239;28;20271;-84
2023/07/22 06:01:21;;;;;;;2.47;2.00;;;19.70;69.40;19.20;96506.00;;;;5077220;28;20279;-87
2023/07/22 06:03:49;;;;;;;2.53;2.33;;;19.70;69.30;19.20;96511.00;;;;5086526;28;20233;-87
2023/07/22 06:06:17;;;;;;;2.33;2.13;;;19.80;69.30;19.30;96493.00;;;;5092220;28;20280;-87
2023/07/22 06:08:44;;;;;;;2.37;2.17;;;19.80;69.20;19.40;96507.00;;;;5082591;28;20184;-86
2023/07/22 06:11:13;;;;;;;3.10;2.10;;;19.90;69.90;19.50;96504.00;;;;5072016;28;20197;-85
2023/07/22 06:13:40;;;;;;;3.57;2.07;;;20.00;69.20;19.60;96506.00;;;;5077185;28;20249;-85
2023/07/22 06:16:09;;;;;;;2.30;2.10;;;20.10;69.20;19.60;96506.00;;;;5073521;28;20222;-87
2023/07/22 06:18:36;;;;;;;2.60;2.40;;;20.20;69.10;19.70;96513.00;;;;5072188;28;20202;-87
2023/07/22 06:21:04;;;;;;;3.10;2.20;;;20.20;68.90;19.80;96510.00;;;;5074717;28;20196;-86
2023/07/22 06:23:31;;;;;;;2.20;2.00;;;20.30;69.00;19.90;96505.00;;;;5072940;28;20206;-87
2023/07/22 06:25:58;;;;;;;2.50;2.30;;;20.40;68.80;20.00;96515.00;;;;5069090;28;20302;-86
2023/07/22 06:28:25;;;;;;;2.00;1.80;;;20.50;68.50;20.10;96494.00;;;;5073044;28;20283;-86
2023/07/22 06:30:53;;;;;;;2.10;1.90;;;20.60;68.50;20.10;96504.00;;;;5066032;28;20235;-85
2023/07/22 06:33:22;;;;;;;2.10;1.70;;;20.70;68.20;20.20;96511.00;;;;5069482;28;20192;-86
2023/07/22 06:35:49;;;;;;;2.17;1.97;;;20.70;68.20;20.30;96503.00;;;;5068180;28;20235;-86
2023/07/22 06:38:16;;;;;;;2.07;1.87;;;20.80;67.90;20.40;96512.00;;;;5065432;28;20198;-87
2023/07/22 06:40:43;;;;;;;2.60;1.70;;;20.90;67.60;20.50;96523.00;;;;5079194;28;20231;-87
2023/07/22 06:43:10;;;;;;;1.80;1.67;;;21.00;67.30;20.60;96519.00;;;;5070723;28;20715;-86
2023/07/22 06:45:38;;;;;;;1.60;1.50;;;21.00;67.20;20.60;96523.00;;;;5070763;28;20205;-87
2023/07/22 06:48:06;;;;;;;1.77;1.67;;;21.20;67.00;20.70;96516.00;;;;5068889;28;20310;-86
2023/07/22 06:50:34;;;;;;;1.80;1.70;;;21.20;66.80;20.80;96521.00;;;;5072977;28;20204;-85
2023/07/22 06:53:02;;;;;;;3.30;1.83;;;21.30;66.60;20.90;96535.00;;;;5074883;28;20208;-84
2023/07/22 06:55:29;;;;;;;5.03;1.70;;;21.30;66.50;20.90;96534.00;;;;5075543;28;20190;-84
2023/07/22 06:57:57;;;;;;;2.00;1.70;;;21.40;66.50;21.00;96537.00;;;;5067839;28;20279;-84
2023/07/22 07:00:25;;;;;;;1.70;1.60;;;21.50;66.60;21.10;96533.00;;;;5067291;28;20291;-84
2023/07/22 07:02:52;;;;;;;1.90;1.80;;;21.50;66.20;21.20;96535.00;;;;5074486;28;20192;-86
2023/07/22 07:05:19;;;;;;;1.70;1.60;;;21.60;66.20;21.20;96548.00;;;;5072326;28;20708;-86
2023/07/22 07:07:50;;;;;;;1.67;1.57;;;21.70;66.00;21.30;96531.00;;;;5074560;28;20211;-86
2023/07/22 07:10:17;;;;;;;4.20;1.40;;;21.80;65.80;21.40;96539.00;;;;5071615;28;20196;-85
2023/07/22 07:12:44;;;;;;;1.80;1.70;;;21.80;65.60;21.50;96533.00;;;;5085890;28;20551;-87
2023/07/22 07:15:12;;;;;;;2.00;1.90;;;21.90;65.40;21.60;96538.00;;;;5069835;28;20283;-86
2023/07/22 07:17:39;;;;;;;4.07;1.30;;;22.00;65.30;21.70;96541.00;;;;5070063;28;20700;-86
2023/07/22 07:20:08;;;;;;;2.10;1.40;;;22.10;64.90;21.80;96544.00;;;;5070733;28;20278;-86
2023/07/22 07:22:36;;;;;;;1.50;1.40;;;22.20;64.60;22.00;96546.00;;;;5069519;28;20323;-87
2023/07/22 07:25:05;;;;;;;1.37;1.20;;;22.30;64.40;22.10;96544.00;;;;5066722;28;20196;-85
2023/07/22 07:27:33;;;;;;;1.93;1.30;;;22.50;63.60;22.20;96548.00;;;;5053353;28;20219;-86
2023/07/22 07:30:00;;;;;;;1.20;1.00;;;22.60;62.90;22.40;96550.00;;;;5070501;28;20192;-86
2023/07/22 07:32:27;;;;;;;1.07;0.97;;;22.70;63.40;22.50;96554.00;;;;5069128;28;20196;-86
2023/07/22 07:34:54;;;;;;;1.43;1.10;;;22.80;62.50;22.60;96553.00;;;;5070617;28;20196;-85
2023/07/22 07:37:23;;;;;;;1.00;0.90;;;22.90;61.90;22.80;96558.00;;;;5072468;28;20231;-85
2023/07/22 07:39:50;;;;;;;1.03;0.90;;;23.10;61.30;22.90;96554.00;;;;5069229;28;20679;-85
2023/07/22 07:42:19;;;;;;;2.30;1.60;;;23.20;60.80;23.00;96551.00;;;;5066758;28;20714;-85
2023/07/22 07:44:47;;;;;;;1.07;0.90;;;23.30;59.80;23.10;96554.00;;;;5057853;28;20205;-86
2023/07/22 07:47:14;;;;;;;0.93;0.90;;;23.50;59.40;23.30;96551.00;;;;5067502;28;20229;-86
2023/07/22 07:49:41;;;;;;;1.33;1.23;;;23.60;59.10;23.40;96547.00;;;;5066325;28;20663;-86
2023/07/22 07:52:09;;;;;;;1.03;0.90;;;23.70;58.80;23.60;96548.00;;;;5069875;28;20745;-86
2023/07/22 07:54:36;;;;;;;0.80;0.80;;;23.90;58.70;23.70;96557.00;;;;5069514;28;20735;-86
2023/07/22 07:57:03;;;;;;;0.80;0.80;;;24.00;58.20;23.80;96560.00;;;;5084775;28;20217;-85
2023/07/22 07:59:32;;;;;;;1.60;0.90;;;24.10;57.70;24.00;96560.00;;;;5070213;28;20225;-86
2023/07/22 08:01:59;;;;;;;1.00;0.90;;;24.30;57.50;24.10;96553.00;;;;5068737;28;20202;-86
2023/07/22 08:04:27;;;;;;;0.70;0.70;;;24.40;57.20;24.20;96559.00;;;;5074399;28;20205;-86
2023/07/22 08:06:54;;;;;;;0.77;0.77;;;24.50;57.00;24.40;96558.00;;;;5077022;28;20306;-87
2023/07/22 08:09:21;;;;;;;1.13;0.97;;;24.70;56.90;24.50;96561.00;;;;5073925;28;20200;-86
2023/07/22 08:11:48;;;;;;;0.80;0.80;;;24.80;56.50;24.60;96560.00;;;;5059224;28;20198;-86
2023/07/22 08:14:16;;;;;;;1.27;0.97;;;24.90;55.90;24.80;96560.00;;;;5070891;28;20199;-86
2023/07/22 08:16:45;;;;;;;0.80;0.80;;;25.10;55.20;24.90;96562.00;;;;5071262;28;20223;-84
2023/07/22 08:19:12;;;;;;;1.00;0.93;;;25.20;54.90;25.00;96565.00;;;;5066459;28;20580;-86
2023/07/22 08:21:39;;;;;;;0.93;0.93;;;25.30;54.60;25.20;96562.00;;;;5064692;28;20188;-87
2023/07/22 08:24:18;;;;;;;0.80;0.70;;;25.40;54.40;25.30;96559.00;;;;5072389;28;20204;-85
2023/07/22 08:26:45;;;;;;;1.17;1.00;;;25.60;52.70;25.40;96567.00;;;;5067203;28;20684;-85
2023/07/22 08:29:12;;;;;;;0.80;0.73;;;25.70;53.30;25.50;96567.00;;;;5068487;28;20196;-85
2023/07/22 08:31:39;;;;;;;1.30;0.77;;;25.80;52.90;25.60;96561.00;;;;5067285;28;20203;-85
2023/07/22 08:34:08;;;;;;;1.30;0.83;;;25.90;52.60;25.80;96554.00;;;;5071755;28;20817;-84
2023/07/22 08:36:36;;;;;;;0.70;0.70;;;26.00;52.30;25.90;96560.00;;;;5064519;28;20226;-86
2023/07/22 08:39:04;;;;;;;0.63;0.60;;;26.10;52.10;26.00;96561.00;;;;5068220;28;20203;-85
2023/07/22 08:41:32;;;;;;;0.90;0.90;;;26.30;51.60;26.10;96563.00;;;;5064499;28;20204;-86
2023/07/22 08:44:01;;;;;;;1.43;0.80;;;26.40;51.00;26.30;96566.00;;;;5067536;28;20196;-84
2023/07/22 08:46:30;;;;;;;0.80;0.80;;;26.50;50.90;26.40;96566.00;;;;5068071;28;20231;-85
2023/07/22 08:49:01;;;;;;;1.30;1.20;;;26.60;50.60;26.50;96571.00;;;;5075224;28;20669;-82
2023/07/22 08:51:32;;;;;;;1.50;0.90;;;26.80;50.80;26.70;96570.00;;;;5039854;28;20253;-83
2023/07/22 08:54:00;;;;;;;0.93;0.90;;;26.90;50.30;26.90;96566.00;;;;5074258;28;20203;-85
2023/07/22 08:56:29;;;;;;;0.80;0.80;;;27.00;49.90;27.00;96562.00;;;;5075013;28;20310;-85
2023/07/22 08:58:59;;;;;;;0.90;0.80;;;27.20;49.40;27.10;96563.00;;;;5080699;28;20191;-85
2023/07/22 09:01:26;;;;;;;0.80;0.80;;;27.30;49.00;27.30;96571.00;;;;5081197;28;20203;-84
2023/07/22 09:03:58;;;;;;;1.10;0.97;;;27.50;48.80;27.40;96565.00;;;;5072178;28;20535;-84
2023/07/22 09:06:25;;;;;;;0.60;0.60;;;27.60;48.60;27.50;96566.00;;;;5074361;28;20226;-85
2023/07/22 09:08:54;;;;;;;1.40;0.80;;;27.70;48.00;27.60;96572.00;;;;5077480;28;20199;-84
2023/07/22 09:11:22;;;;;;;0.57;0.57;;;27.80;47.80;27.70;96568.00;;;;5074162;28;20197;-83
2023/07/22 09:13:53;;;;;;;0.50;0.50;;;27.90;47.60;27.90;96567.00;;;;5086808;28;20200;-83
2023/07/22 09:16:21;;;;;;;0.98;0.75;;;28.00;46.70;27.90;96576.00;;;;5075859;28;20236;-84
2023/07/22 09:18:48;;;;;;;0.63;0.43;;;28.10;46.60;27.90;96575.00;;;;5055130;28;20203;-84
2023/07/22 09:21:16;;;;;;;1.35;0.75;;;28.20;46.30;27.90;96572.00;;;;5071081;28;20192;-83
2023/07/22 09:23:43;;;;;;;0.60;0.50;;;28.20;45.90;27.90;96558.00;;;;5070410;28;20196;-83
2023/07/22 09:26:13;;;;;;;1.73;0.60;;;28.30;45.60;28.00;96566.00;;;;5080656;28;20613;-83
2023/07/22 09:28:54;;;;;;;0.52;0.52;;;28.30;44.50;28.00;96563.00;;;;5093357;28;20199;-83
2023/07/22 09:31:23;;;;;;;0.60;0.60;;;28.30;43.70;28.00;96558.00;;;;5073241;28;20340;-82
2023/07/22 09:33:51;;;;;;;0.60;0.60;;;28.30;44.00;28.10;96569.00;;;;5070864;28;20654;-82
2023/07/22 09:36:18;;;;;;;0.50;0.50;;;28.40;44.40;28.10;96561.00;;;;5068238;28;20224;-83
2023/07/22 09:38:45;;;;;;;1.85;0.80;;;28.50;44.70;28.20;96566.00;;;;5078526;28;20263;-82
2023/07/22 09:41:20;;;;;;;1.13;0.70;;;28.50;44.60;28.30;96562.00;;;;5081191;28;20562;-84
2023/07/22 09:43:49;;;;;;;1.65;0.98;;;28.60;44.20;28.40;96547.00;;;;5079461;28;20282;-83
2023/07/22 09:46:16;;;;;;;0.57;0.57;;;28.70;43.90;28.50;96554.00;;;;5072044;28;20215;-83
2023/07/22 09:48:45;;;;;;;0.68;0.68;;;28.90;43.90;28.70;96549.00;;;;5075587;28;20669;-83
2023/07/22 09:51:15;;;;;;;0.68;0.68;;;29.10;43.70;28.80;96557.00;;;;5073133;28;20196;-82
2023/07/22 09:53:59;;;;;;;0.75;0.75;;;29.30;43.90;29.00;96559.00;;;;5074368;28;20211;-83
2023/07/22 09:56:28;;;;;;;1.42;0.82;;;29.50;42.90;29.20;96566.00;;;;5070925;28;20212;-83
2023/07/22 09:58:57;;;;;;;2.13;0.60;;;29.60;43.20;29.30;96555.00;;;;5071416;28;20283;-84
2023/07/22 10:01:26;;;;;;;0.60;0.60;;;29.80;42.80;29.40;96556.00;;;;5070993;28;20223;-82
2023/07/22 10:03:57;;;;;;;0.60;0.60;;;30.00;42.20;29.60;96557.00;;;;5076601;28;20196;-83
2023/07/22 10:06:28;;;;;;;0.60;0.60;;;30.20;42.00;29.70;96559.00;;;;5070784;28;20215;-84
2023/07/22 10:08:58;;;;;;;0.50;0.50;;;30.40;41.20;29.80;96558.00;;;;5075828;28;20296;-84
2023/07/22 10:11:29;;;;;;;0.60;0.50;;;30.60;40.90;29.90;96557.00;;;;5072942;28;20196;-83
2023/07/22 10:13:57;;;;;;;1.15;0.50;;;30.70;40.40;30.00;96562.00;;;;5080860;28;20204;-84
2023/07/22 10:16:26;;;;;;;0.60;0.60;;;30.80;40.70;30.10;96552.00;;;;5071726;28;20299;-83
2023/07/22 10:18:56;;;;;;;0.90;0.70;;;31.00;40.50;30.20;96558.00;;;;5092497;28;20726;-83
2023/07/22 10:21:25;;;;;;;0.40;0.40;;;31.10;40.00;30.30;96555.00;;;;5080192;28;20260;-83
2023/07/22 10:23:53;;;;;;;0.50;0.50;;;31.20;40.30;30.40;96542.00;;;;5082841;28;20199;-83
2023/07/22 10:26:22;;;;;;;0.60;0.60;;;31.40;40.00;30.60;96538.00;;;;5084754;28;20219;-84
2023/07/22 10:28:51;;;;;;;0.90;0.50;;;31.50;39.60;30.70;96537.00;;;;5077550;28;20196;-83
2023/07/22 10:31:19;;;;;;;0.98;0.70;;;31.60;39.70;30.80;96538.00;;;;5071960;28;20196;-83
2023/07/22 10:33:47;;;;;;;0.77;0.65;;;31.70;39.50;31.00;96534.00;;;;5084548;28;20391;-83
2023/07/22 10:36:17;;;;;;;0.90;0.90;;;31.90;39.30;31.10;96535.00;;;;5077714;28;20295;-84
2023/07/22 10:38:57;;;;;;;0.85;0.85;;;32.00;39.10;31.20;96546.00;;;;5073313;28;20298;-84
2023/07/22 10:41:24;;;;;;;0.60;0.60;;;32.10;38.00;31.40;96530.00;;;;5079637;28;22054;-83
2023/07/22 10:44:01;;;;;;;0.98;0.60;;;32.20;38.30;31.50;96539.00;;;;5059455;28;20192;-84
2023/07/22 10:46:39;;;;;;;1.77;0.63;;;32.30;37.90;31.60;96535.00;;;;5043907;28;20213;-83
2023/07/22 10:49:15;;;;;;;0.50;0.50;;;32.50;37.60;31.70;96529.00;;;;5084647;28;20203;-83
2023/07/22 10:51:48;;;;;;;0.70;0.70;;;32.50;37.80;31.80;96532.00;;;;5067467;28;20199;-84
2023/07/22 10:54:36;;;;;;;0.90;0.80;;;32.50;38.10;31.80;96526.00;;;;5072361;28;20278;-83
2023/07/22 10:57:05;;;;;;;0.63;0.63;;;32.50;37.50;31.90;96534.00;;;;5074896;28;20227;-84
2023/07/22 10:59:35;;;;;;;0.80;0.80;;;32.60;37.40;32.00;96529.00;;;;5078321;28;20738;-83